sensor_id;sensor_type;location;lat;lon;timestamp;temperature;humidity
29575;DHT22;16507;51.046;6.406;2023-06-04T00:02:24;12.80;99.90
29575;DHT22;16507;51.046;6.406;2023-06-04T00:04:50;12.80;99.90
29575;DHT22;16507;51.046;6.406;2023-06-04T00:07:16;12.70;99.90
29575;DHT22;16507;51.046;6.406;2023-06-04T00:09:42;12.70;99.90
29575;DHT22;16507;51.046;6.406;2023-06-04T00:12:08;12.60;99.90
29575;DHT22;16507;51.046;6.406;2023-06-04T00:14:34;12.60;99.90
29575;DHT22;16507;51.046;6.406;2023-06-04T00:16:59;12.60;99.90
29575;DHT22;16507;51.046;6.406;2023-06-04T00:19:25;12.60;99.90
29575;DHT22;16507;51.046;6.406;2023-06-04T00:21:50;12.50;99.90
29575;DHT22;16507;51.046;6.406;2023-06-04T00:24:16;12.60;99.90
29575;DHT22;16507;51.046;6.406;2023-06-04T00:26:42;12.50;99.90
29575;DHT22;16507;51.046;6.406;2023-06-04T00:29:08;12.50;99.90
29575;DHT22;16507;51.046;6.406;2023-06-04T00:31:34;12.40;99.90
29575;DHT22;16507;51.046;6.406;2023-06-04T00:33:59;12.30;99.90
29575;DHT22;16507;51.046;6.406;2023-06-04T00:36:25;12.20;1.00
29575;DHT22;16507;51.046;6.406;2023-06-04T00:38:50;12.10;1.00
29575;DHT22;16507;51.046;6.406;2023-06-04T00:41:16;11.90;1.00
29575;DHT22;16507;51.046;6.406;2023-06-04T00:43:42;11.80;1.00
29575;DHT22;16507;51.046;6.406;2023-06-04T00:46:11;11.70;1.00
29575;DHT22;16507;51.046;6.406;2023-06-04T00:48:44;11.70;1.00
29575;DHT22;16507;51.046;6.406;2023-06-04T00:51:11;11.60;1.00
29575;DHT22;16507;51.046;6.406;2023-06-04T00:53:38;11.60;1.00
29575;DHT22;16507;51.046;6.406;2023-06-04T00:56:04;11.60;1.00
29575;DHT22;16507;51.046;6.406;2023-06-04T00:58:32;11.60;1.00
29575;DHT22;16507;51.046;6.406;2023-06-04T01:01:00;11.60;1.00
29575;DHT22;16507;51.046;6.406;2023-06-04T01:03:32;11.50;1.00
29575;DHT22;16507;51.046;6.406;2023-06-04T01:06:38;11.40;1.00
29575;DHT22;16507;51.046;6.406;2023-06-04T01:09:00;11.50;1.00
29575;DHT22;16507;51.046;6.406;2023-06-04T01:11:36;11.40;1.00
29575;DHT22;16507;51.046;6.406;2023-06-04T01:14:05;11.30;1.00
29575;DHT22;16507;51.046;6.406;2023-06-04T01:16:52;11.30;1.00
29575;DHT22;16507;51.046;6.406;2023-06-04T01:23:02;11.50;1.00
29575;DHT22;16507;51.046;6.406;2023-06-04T01:25:37;11.50;1.00
29575;DHT22;16507;51.046;6.406;2023-06-04T01:28:12;11.40;1.00
29575;DHT22;16507;51.046;6.406;2023-06-04T01:30:41;11.40;1.00
29575;DHT22;16507;51.046;6.406;2023-06-04T01:33:13;11.40;1.00
29575;DHT22;16507;51.046;6.406;2023-06-04T01:35:39;11.40;1.00
29575;DHT22;16507;51.046;6.406;2023-06-04T01:38:05;11.40;1.00
29575;DHT22;16507;51.046;6.406;2023-06-04T01:40:31;11.50;1.00
29575;DHT22;16507;51.046;6.406;2023-06-04T01:42:57;11.40;1.00
29575;DHT22;16507;51.046;6.406;2023-06-04T01:45:24;11.40;1.00
29575;DHT22;16507;51.046;6.406;2023-06-04T01:47:51;11.50;1.00
29575;DHT22;16507;51.046;6.406;2023-06-04T01:50:16;11.50;1.00
29575;DHT22;16507;51.046;6.406;2023-06-04T01:52:43;11.40;1.00
29575;DHT22;16507;51.046;6.406;2023-06-04T01:55:10;11.40;1.00
29575;DHT22;16507;51.046;6.406;2023-06-04T01:57:38;11.30;1.00
29575;DHT22;16507;51.046;6.406;2023-06-04T02:00:06;11.30;1.00
29575;DHT22;16507;51.046;6.406;2023-06-04T02:02:36;11.30;1.00
29575;DHT22;16507;51.046;6.406;2023-06-04T02:05:07;11.30;1.00
29575;DHT22;16507;51.046;6.406;2023-06-04T02:07:37;11.30;1.00
29575;DHT22;16507;51.046;6.406;2023-06-04T02:10:07;11.20;1.00
29575;DHT22;16507;51.046;6.406;2023-06-04T02:12:36;11.20;1.00
29575;DHT22;16507;51.046;6.406;2023-06-04T02:15:02;11.20;1.00
29575;DHT22;16507;51.046;6.406;2023-06-04T02:17:28;11.20;1.00
29575;DHT22;16507;51.046;6.406;2023-06-04T02:19:58;11.20;1.00
29575;DHT22;16507;51.046;6.406;2023-06-04T02:22:24;11.20;1.00
29575;DHT22;16507;51.046;6.406;2023-06-04T02:24:50;11.20;1.00
29575;DHT22;16507;51.046;6.406;2023-06-04T02:27:16;11.40;1.00
29575;DHT22;16507;51.046;6.406;2023-06-04T02:29:42;11.40;1.00
29575;DHT22;16507;51.046;6.406;2023-06-04T02:32:09;11.50;1.00
29575;DHT22;16507;51.046;6.406;2023-06-04T02:34:35;11.40;1.00
29575;DHT22;16507;51.046;6.406;2023-06-04T02:37:01;11.40;1.00
29575;DHT22;16507;51.046;6.406;2023-06-04T02:39:27;11.40;1.00
29575;DHT22;16507;51.046;6.406;2023-06-04T02:41:52;11.30;1.00
29575;DHT22;16507;51.046;6.406;2023-06-04T02:44:18;11.30;1.00
29575;DHT22;16507;51.046;6.406;2023-06-04T02:46:44;11.30;1.00
29575;DHT22;16507;51.046;6.406;2023-06-04T02:49:10;11.20;1.00
29575;DHT22;16507;51.046;6.406;2023-06-04T02:51:42;11.10;1.00
29575;DHT22;16507;51.046;6.406;2023-06-04T02:54:08;11.10;1.00
29575;DHT22;16507;51.046;6.406;2023-06-04T02:56:35;11.20;1.00
29575;DHT22;16507;51.046;6.406;2023-06-04T02:59:01;11.10;1.00
29575;DHT22;16507;51.046;6.406;2023-06-04T03:01:27;11.00;1.00
29575;DHT22;16507;51.046;6.406;2023-06-04T03:03:54;10.90;1.00
29575;DHT22;16507;51.046;6.406;2023-06-04T03:06:21;10.90;1.00
29575;DHT22;16507;51.046;6.406;2023-06-04T03:08:48;10.80;1.00
29575;DHT22;16507;51.046;6.406;2023-06-04T03:11:14;10.70;1.00
29575;DHT22;16507;51.046;6.406;2023-06-04T03:13:40;10.70;21.90
29575;DHT22;16507;51.046;6.406;2023-06-04T03:16:06;10.60;59.00
29575;DHT22;16507;51.046;6.406;2023-06-04T03:18:39;10.50;99.90
29575;DHT22;16507;51.046;6.406;2023-06-04T03:21:05;10.40;99.90
29575;DHT22;16507;51.046;6.406;2023-06-04T03:23:32;10.40;99.90
29575;DHT22;16507;51.046;6.406;2023-06-04T03:25:58;10.40;99.90
29575;DHT22;16507;51.046;6.406;2023-06-04T03:28:23;10.40;99.90
29575;DHT22;16507;51.046;6.406;2023-06-04T03:30:49;10.40;99.90
29575;DHT22;16507;51.046;6.406;2023-06-04T03:33:15;10.30;99.90
29575;DHT22;16507;51.046;6.406;2023-06-04T03:35:41;10.30;99.90
29575;DHT22;16507;51.046;6.406;2023-06-04T03:38:07;10.30;99.90
29575;DHT22;16507;51.046;6.406;2023-06-04T03:40:33;10.30;99.90
29575;DHT22;16507;51.046;6.406;2023-06-04T03:42:58;10.20;99.90
29575;DHT22;16507;51.046;6.406;2023-06-04T03:45:25;10.20;99.90
29575;DHT22;16507;51.046;6.406;2023-06-04T03:47:51;10.20;99.90
29575;DHT22;16507;51.046;6.406;2023-06-04T03:50:18;10.20;99.90
29575;DHT22;16507;51.046;6.406;2023-06-04T03:52:44;10.20;99.90
29575;DHT22;16507;51.046;6.406;2023-06-04T03:55:09;10.10;99.90
29575;DHT22;16507;51.046;6.406;2023-06-04T03:57:36;10.20;1.00
29575;DHT22;16507;51.046;6.406;2023-06-04T04:00:08;10.20;1.00
29575;DHT22;16507;51.046;6.406;2023-06-04T04:02:36;10.10;1.00
29575;DHT22;16507;51.046;6.406;2023-06-04T04:05:01;10.20;1.00
29575;DHT22;16507;51.046;6.406;2023-06-04T04:07:28;10.20;1.00
29575;DHT22;16507;51.046;6.406;2023-06-04T04:09:55;10.20;1.00
29575;DHT22;16507;51.046;6.406;2023-06-04T04:12:20;10.20;1.00
29575;DHT22;16507;51.046;6.406;2023-06-04T04:14:46;10.20;1.00
29575;DHT22;16507;51.046;6.406;2023-06-04T04:17:13;10.30;1.00
29575;DHT22;16507;51.046;6.406;2023-06-04T04:19:39;10.30;1.00
29575;DHT22;16507;51.046;6.406;2023-06-04T04:22:04;10.40;1.00
29575;DHT22;16507;51.046;6.406;2023-06-04T04:24:30;10.40;1.00
29575;DHT22;16507;51.046;6.406;2023-06-04T04:26:57;10.70;1.00
29575;DHT22;16507;51.046;6.406;2023-06-04T04:29:24;11.20;99.90
29575;DHT22;16507;51.046;6.406;2023-06-04T04:31:53;11.90;99.90
29575;DHT22;16507;51.046;6.406;2023-06-04T04:34:22;13.00;1.00
29575;DHT22;16507;51.046;6.406;2023-06-04T04:36:49;13.60;1.00
29575;DHT22;16507;51.046;6.406;2023-06-04T04:39:26;14.00;1.00
29575;DHT22;16507;51.046;6.406;2023-06-04T04:41:53;13.40;1.00
29575;DHT22;16507;51.046;6.406;2023-06-04T04:44:19;12.90;1.00
29575;DHT22;16507;51.046;6.406;2023-06-04T04:46:45;12.50;1.00
29575;DHT22;16507;51.046;6.406;2023-06-04T04:49:11;12.50;1.00
29575;DHT22;16507;51.046;6.406;2023-06-04T04:51:36;12.40;1.00
29575;DHT22;16507;51.046;6.406;2023-06-04T04:54:02;12.30;1.00
29575;DHT22;16507;51.046;6.406;2023-06-04T04:56:28;12.30;1.00
29575;DHT22;16507;51.046;6.406;2023-06-04T04:58:54;12.40;1.00
29575;DHT22;16507;51.046;6.406;2023-06-04T05:01:21;12.40;1.00
29575;DHT22;16507;51.046;6.406;2023-06-04T05:03:47;12.40;1.00
29575;DHT22;16507;51.046;6.406;2023-06-04T05:06:12;12.50;1.00
29575;DHT22;16507;51.046;6.406;2023-06-04T05:08:38;12.50;1.00
29575;DHT22;16507;51.046;6.406;2023-06-04T05:11:04;12.60;1.00
29575;DHT22;16507;51.046;6.406;2023-06-04T05:13:29;12.60;1.00
29575;DHT22;16507;51.046;6.406;2023-06-04T05:15:55;12.80;1.00
29575;DHT22;16507;51.046;6.406;2023-06-04T05:18:22;12.90;1.00
29575;DHT22;16507;51.046;6.406;2023-06-04T05:20:58;13.00;1.00
29575;DHT22;16507;51.046;6.406;2023-06-04T05:23:26;13.10;1.00
29575;DHT22;16507;51.046;6.406;2023-06-04T05:25:51;13.20;1.00
29575;DHT22;16507;51.046;6.406;2023-06-04T05:28:17;13.30;1.00
29575;DHT22;16507;51.046;6.406;2023-06-04T05:30:43;13.30;1.00
29575;DHT22;16507;51.046;6.406;2023-06-04T05:33:09;13.30;1.00
29575;DHT22;16507;51.046;6.406;2023-06-04T05:35:49;13.30;1.00
29575;DHT22;16507;51.046;6.406;2023-06-04T05:38:15;13.30;1.00
29575;DHT22;16507;51.046;6.406;2023-06-04T05:40:51;13.40;1.00
29575;DHT22;16507;51.046;6.406;2023-06-04T05:43:20;13.50;1.00
29575;DHT22;16507;51.046;6.406;2023-06-04T05:45:46;13.50;1.00
29575;DHT22;16507;51.046;6.406;2023-06-04T05:48:12;13.60;1.00
29575;DHT22;16507;51.046;6.406;2023-06-04T05:50:38;13.70;1.00
29575;DHT22;16507;51.046;6.406;2023-06-04T05:53:04;13.60;1.00
29575;DHT22;16507;51.046;6.406;2023-06-04T05:55:29;13.70;1.00
29575;DHT22;16507;51.046;6.406;2023-06-04T05:57:55;13.80;1.00
29575;DHT22;16507;51.046;6.406;2023-06-04T06:00:21;13.90;1.00
29575;DHT22;16507;51.046;6.406;2023-06-04T06:02:50;14.00;1.00
29575;DHT22;16507;51.046;6.406;2023-06-04T06:05:17;13.90;1.00
29575;DHT22;16507;51.046;6.406;2023-06-04T06:07:43;14.00;1.00
29575;DHT22;16507;51.046;6.406;2023-06-04T06:10:09;14.20;1.00
29575;DHT22;16507;51.046;6.406;2023-06-04T06:12:35;14.30;1.00
29575;DHT22;16507;51.046;6.406;2023-06-04T06:15:01;14.40;1.00
29575;DHT22;16507;51.046;6.406;2023-06-04T06:17:26;14.60;1.00
29575;DHT22;16507;51.046;6.406;2023-06-04T06:19:53;14.80;1.00
29575;DHT22;16507;51.046;6.406;2023-06-04T06:22:18;14.80;1.00
29575;DHT22;16507;51.046;6.406;2023-06-04T06:24:44;14.80;1.00
29575;DHT22;16507;51.046;6.406;2023-06-04T06:27:10;15.00;1.00
29575;DHT22;16507;51.046;6.406;2023-06-04T06:29:36;15.00;1.00
29575;DHT22;16507;51.046;6.406;2023-06-04T06:32:02;15.10;1.00
29575;DHT22;16507;51.046;6.406;2023-06-04T06:34:28;15.10;1.00
29575;DHT22;16507;51.046;6.406;2023-06-04T06:36:54;15.00;1.00
29575;DHT22;16507;51.046;6.406;2023-06-04T06:39:20;15.10;1.00
29575;DHT22;16507;51.046;6.406;2023-06-04T06:41:46;15.20;1.00
29575;DHT22;16507;51.046;6.406;2023-06-04T06:44:11;15.30;1.00
29575;DHT22;16507;51.046;6.406;2023-06-04T06:46:37;15.30;1.00
29575;DHT22;16507;51.046;6.406;2023-06-04T06:49:02;15.30;1.00
29575;DHT22;16507;51.046;6.406;2023-06-04T06:51:28;15.30;1.00
29575;DHT22;16507;51.046;6.406;2023-06-04T06:53:54;15.40;1.00
29575;DHT22;16507;51.046;6.406;2023-06-04T06:56:19;15.40;1.00
29575;DHT22;16507;51.046;6.406;2023-06-04T06:58:45;15.80;1.00
29575;DHT22;16507;51.046;6.406;2023-06-04T07:01:12;16.20;1.00
29575;DHT22;16507;51.046;6.406;2023-06-04T07:03:37;16.20;1.00
29575;DHT22;16507;51.046;6.406;2023-06-04T07:06:05;16.40;1.00
29575;DHT22;16507;51.046;6.406;2023-06-04T07:08:31;16.10;1.00
29575;DHT22;16507;51.046;6.406;2023-06-04T07:10:57;16.00;1.00
29575;DHT22;16507;51.046;6.406;2023-06-04T07:13:23;16.20;1.00
29575;DHT22;16507;51.046;6.406;2023-06-04T07:15:49;16.40;1.00
29575;DHT22;16507;51.046;6.406;2023-06-04T07:18:14;16.60;1.00
29575;DHT22;16507;51.046;6.406;2023-06-04T07:20:40;16.80;1.00
29575;DHT22;16507;51.046;6.406;2023-06-04T07:23:06;16.70;1.00
29575;DHT22;16507;51.046;6.406;2023-06-04T07:25:32;17.10;1.00
29575;DHT22;16507;51.046;6.406;2023-06-04T07:27:58;17.20;1.00
29575;DHT22;16507;51.046;6.406;2023-06-04T07:30:27;17.30;1.00
29575;DHT22;16507;51.046;6.406;2023-06-04T07:32:54;17.30;1.00
29575;DHT22;16507;51.046;6.406;2023-06-04T07:35:20;17.30;1.00
29575;DHT22;16507;51.046;6.406;2023-06-04T07:37:45;17.40;1.00
29575;DHT22;16507;51.046;6.406;2023-06-04T07:40:13;17.40;1.00
29575;DHT22;16507;51.046;6.406;2023-06-04T07:42:40;17.70;1.00
29575;DHT22;16507;51.046;6.406;2023-06-04T07:45:06;18.10;1.00
29575;DHT22;16507;51.046;6.406;2023-06-04T07:47:32;18.30;1.00
29575;DHT22;16507;51.046;6.406;2023-06-04T07:49:57;18.00;1.00
29575;DHT22;16507;51.046;6.406;2023-06-04T07:52:23;17.90;1.00
29575;DHT22;16507;51.046;6.406;2023-06-04T07:54:49;17.70;1.00
29575;DHT22;16507;51.046;6.406;2023-06-04T07:57:14;17.90;1.00
29575;DHT22;16507;51.046;6.406;2023-06-04T07:59:40;18.20;1.00
29575;DHT22;16507;51.046;6.406;2023-06-04T08:02:05;18.60;1.00
29575;DHT22;16507;51.046;6.406;2023-06-04T08:04:31;18.90;1.00
29575;DHT22;16507;51.046;6.406;2023-06-04T08:06:57;18.80;1.00
29575;DHT22;16507;51.046;6.406;2023-06-04T08:09:23;18.70;1.00
29575;DHT22;16507;51.046;6.406;2023-06-04T08:11:49;18.50;1.00
29575;DHT22;16507;51.046;6.406;2023-06-04T08:14:14;18.40;1.00
29575;DHT22;16507;51.046;6.406;2023-06-04T08:16:40;18.50;1.00
29575;DHT22;16507;51.046;6.406;2023-06-04T08:19:06;18.40;1.00
29575;DHT22;16507;51.046;6.406;2023-06-04T08:21:33;18.80;1.00
29575;DHT22;16507;51.046;6.406;2023-06-04T08:23:59;18.90;1.00
29575;DHT22;16507;51.046;6.406;2023-06-04T08:26:26;19.20;1.00
29575;DHT22;16507;51.046;6.406;2023-06-04T08:28:52;19.20;1.00
29575;DHT22;16507;51.046;6.406;2023-06-04T08:31:18;19.50;1.00
29575;DHT22;16507;51.046;6.406;2023-06-04T08:33:47;19.50;1.00
29575;DHT22;16507;51.046;6.406;2023-06-04T08:36:13;19.60;1.00
29575;DHT22;16507;51.046;6.406;2023-06-04T08:38:39;19.70;1.00
29575;DHT22;16507;51.046;6.406;2023-06-04T08:41:24;19.90;1.00
29575;DHT22;16507;51.046;6.406;2023-06-04T08:43:56;20.00;1.00
29575;DHT22;16507;51.046;6.406;2023-06-04T08:46:22;20.20;1.00
29575;DHT22;16507;51.046;6.406;2023-06-04T08:48:49;20.30;1.00
29575;DHT22;16507;51.046;6.406;2023-06-04T08:51:15;20.30;1.00
29575;DHT22;16507;51.046;6.406;2023-06-04T08:53:42;20.40;1.00
29575;DHT22;16507;51.046;6.406;2023-06-04T08:56:08;20.60;1.00
29575;DHT22;16507;51.046;6.406;2023-06-04T08:58:36;20.80;1.00
29575;DHT22;16507;51.046;6.406;2023-06-04T09:01:03;20.70;1.00
29575;DHT22;16507;51.046;6.406;2023-06-04T09:03:29;20.90;1.00
29575;DHT22;16507;51.046;6.406;2023-06-04T09:05:59;20.90;1.00
29575;DHT22;16507;51.046;6.406;2023-06-04T09:08:26;20.90;1.00
29575;DHT22;16507;51.046;6.406;2023-06-04T09:10:54;21.40;1.00
29575;DHT22;16507;51.046;6.406;2023-06-04T09:13:22;21.10;1.00
29575;DHT22;16507;51.046;6.406;2023-06-04T09:16:02;20.80;1.00
29575;DHT22;16507;51.046;6.406;2023-06-04T09:18:28;21.30;1.00
29575;DHT22;16507;51.046;6.406;2023-06-04T09:21:20;21.10;1.00
29575;DHT22;16507;51.046;6.406;2023-06-04T09:23:47;21.30;1.00
29575;DHT22;16507;51.046;6.406;2023-06-04T09:26:13;21.80;1.00
29575;DHT22;16507;51.046;6.406;2023-06-04T09:28:40;21.90;99.90
29575;DHT22;16507;51.046;6.406;2023-06-04T09:31:09;21.50;99.90
29575;DHT22;16507;51.046;6.406;2023-06-04T09:33:49;21.40;99.90
29575;DHT22;16507;51.046;6.406;2023-06-04T09:36:15;21.30;99.90
29575;DHT22;16507;51.046;6.406;2023-06-04T09:38:42;21.30;99.90
29575;DHT22;16507;51.046;6.406;2023-06-04T09:41:11;21.80;99.90
29575;DHT22;16507;51.046;6.406;2023-06-04T09:43:37;21.80;99.90
29575;DHT22;16507;51.046;6.406;2023-06-04T09:46:23;21.20;99.90
29575;DHT22;16507;51.046;6.406;2023-06-04T09:49:00;21.10;99.90
29575;DHT22;16507;51.046;6.406;2023-06-04T09:51:26;21.40;99.90
29575;DHT22;16507;51.046;6.406;2023-06-04T09:54:10;21.50;99.90
29575;DHT22;16507;51.046;6.406;2023-06-04T09:56:40;21.60;99.90
29575;DHT22;16507;51.046;6.406;2023-06-04T09:59:06;22.00;99.90
29575;DHT22;16507;51.046;6.406;2023-06-04T10:01:33;22.20;99.90
29575;DHT22;16507;51.046;6.406;2023-06-04T10:04:03;22.20;99.90
29575;DHT22;16507;51.046;6.406;2023-06-04T10:06:33;22.30;99.90
29575;DHT22;16507;51.046;6.406;2023-06-04T10:09:02;22.00;99.90
29575;DHT22;16507;51.046;6.406;2023-06-04T10:11:59;22.10;99.90
29575;DHT22;16507;51.046;6.406;2023-06-04T10:14:38;22.30;99.90
29575;DHT22;16507;51.046;6.406;2023-06-04T10:17:07;22.50;99.90
29575;DHT22;16507;51.046;6.406;2023-06-04T10:19:35;22.10;99.90
29575;DHT22;16507;51.046;6.406;2023-06-04T10:22:03;21.90;99.90
29575;DHT22;16507;51.046;6.406;2023-06-04T10:24:30;22.00;99.90
29575;DHT22;16507;51.046;6.406;2023-06-04T10:26:58;22.30;99.90
29575;DHT22;16507;51.046;6.406;2023-06-04T10:29:25;22.30;99.90
29575;DHT22;16507;51.046;6.406;2023-06-04T10:31:54;22.50;99.90
29575;DHT22;16507;51.046;6.406;2023-06-04T10:34:20;22.40;99.90
29575;DHT22;16507;51.046;6.406;2023-06-04T10:36:46;22.50;99.90
29575;DHT22;16507;51.046;6.406;2023-06-04T10:39:12;22.60;99.90
29575;DHT22;16507;51.046;6.406;2023-06-04T10:41:38;22.70;99.90
29575;DHT22;16507;51.046;6.406;2023-06-04T10:44:03;22.90;99.90
29575;DHT22;16507;51.046;6.406;2023-06-04T10:46:39;22.90;99.90
29575;DHT22;16507;51.046;6.406;2023-06-04T10:49:06;22.90;99.90
29575;DHT22;16507;51.046;6.406;2023-06-04T10:51:33;23.10;99.90
29575;DHT22;16507;51.046;6.406;2023-06-04T10:54:00;22.70;99.90
29575;DHT22;16507;51.046;6.406;2023-06-04T10:56:33;22.80;99.90
29575;DHT22;16507;51.046;6.406;2023-06-04T10:59:12;22.90;99.90
29575;DHT22;16507;51.046;6.406;2023-06-04T11:01:38;22.80;99.90
29575;DHT22;16507;51.046;6.406;2023-06-04T11:04:03;23.30;99.90
29575;DHT22;16507;51.046;6.406;2023-06-04T11:06:29;23.40;99.90
29575;DHT22;16507;51.046;6.406;2023-06-04T11:09:04;23.10;99.90
29575;DHT22;16507;51.046;6.406;2023-06-04T11:11:31;23.40;99.90
29575;DHT22;16507;51.046;6.406;2023-06-04T11:14:17;23.30;99.90
29575;DHT22;16507;51.046;6.406;2023-06-04T11:16:43;23.10;99.90
29575;DHT22;16507;51.046;6.406;2023-06-04T11:19:09;23.30;99.90
29575;DHT22;16507;51.046;6.406;2023-06-04T11:21:35;23.30;99.90
29575;DHT22;16507;51.046;6.406;2023-06-04T11:24:03;23.40;99.90
29575;DHT22;16507;51.046;6.406;2023-06-04T11:26:38;23.50;99.90
29575;DHT22;16507;51.046;6.406;2023-06-04T11:29:10;23.80;99.90
29575;DHT22;16507;51.046;6.406;2023-06-04T11:31:49;23.50;99.90
29575;DHT22;16507;51.046;6.406;2023-06-04T11:36:49;22.70;99.90
29575;DHT22;16507;51.046;6.406;2023-06-04T11:39:18;22.70;99.90
29575;DHT22;16507;51.046;6.406;2023-06-04T11:41:45;22.70;99.90
29575;DHT22;16507;51.046;6.406;2023-06-04T11:44:12;23.10;99.90
29575;DHT22;16507;51.046;6.406;2023-06-04T11:46:41;23.30;99.90
29575;DHT22;16507;51.046;6.406;2023-06-04T11:49:17;23.60;99.90
29575;DHT22;16507;51.046;6.406;2023-06-04T11:51:51;23.90;99.90
29575;DHT22;16507;51.046;6.406;2023-06-04T11:54:17;23.50;99.90
29575;DHT22;16507;51.046;6.406;2023-06-04T11:56:44;23.00;99.90
29575;DHT22;16507;51.046;6.406;2023-06-04T11:59:14;23.00;99.90
29575;DHT22;16507;51.046;6.406;2023-06-04T12:01:41;23.50;99.90
29575;DHT22;16507;51.046;6.406;2023-06-04T12:04:18;23.40;99.90
29575;DHT22;16507;51.046;6.406;2023-06-04T12:07:01;23.90;99.90
29575;DHT22;16507;51.046;6.406;2023-06-04T12:09:29;23.70;99.90
29575;DHT22;16507;51.046;6.406;2023-06-04T12:12:00;23.60;99.90
29575;DHT22;16507;51.046;6.406;2023-06-04T12:14:26;23.30;99.90
29575;DHT22;16507;51.046;6.406;2023-06-04T12:19:21;23.90;99.90
29575;DHT22;16507;51.046;6.406;2023-06-04T12:21:47;23.50;99.90
29575;DHT22;16507;51.046;6.406;2023-06-04T12:24:13;23.30;99.90
29575;DHT22;16507;51.046;6.406;2023-06-04T12:26:41;23.60;99.90
29575;DHT22;16507;51.046;6.406;2023-06-04T12:29:12;23.60;99.90
29575;DHT22;16507;51.046;6.406;2023-06-04T12:31:43;23.80;99.90
29575;DHT22;16507;51.046;6.406;2023-06-04T12:34:10;23.70;99.90
29575;DHT22;16507;51.046;6.406;2023-06-04T12:36:36;23.90;99.90
29575;DHT22;16507;51.046;6.406;2023-06-04T12:39:04;24.00;99.90
29575;DHT22;16507;51.046;6.406;2023-06-04T12:41:31;23.90;99.90
29575;DHT22;16507;51.046;6.406;2023-06-04T12:43:59;23.90;99.90
29575;DHT22;16507;51.046;6.406;2023-06-04T12:46:25;24.20;99.90
29575;DHT22;16507;51.046;6.406;2023-06-04T12:48:51;24.10;99.90
29575;DHT22;16507;51.046;6.406;2023-06-04T12:51:17;23.70;99.90
29575;DHT22;16507;51.046;6.406;2023-06-04T12:53:43;23.50;99.90
29575;DHT22;16507;51.046;6.406;2023-06-04T12:56:09;23.90;99.90
29575;DHT22;16507;51.046;6.406;2023-06-04T12:58:35;23.90;99.90
29575;DHT22;16507;51.046;6.406;2023-06-04T13:01:01;23.60;99.90
29575;DHT22;16507;51.046;6.406;2023-06-04T13:03:27;23.90;99.90
29575;DHT22;16507;51.046;6.406;2023-06-04T13:05:53;24.80;99.90
29575;DHT22;16507;51.046;6.406;2023-06-04T13:08:22;26.10;99.90
29575;DHT22;16507;51.046;6.406;2023-06-04T13:10:50;27.50;99.90
29575;DHT22;16507;51.046;6.406;2023-06-04T13:13:16;26.30;99.90
29575;DHT22;16507;51.046;6.406;2023-06-04T13:15:42;26.10;99.90
29575;DHT22;16507;51.046;6.406;2023-06-04T13:18:08;27.10;99.90
29575;DHT22;16507;51.046;6.406;2023-06-04T13:20:35;27.90;99.90
29575;DHT22;16507;51.046;6.406;2023-06-04T13:23:01;27.70;99.90
29575;DHT22;16507;51.046;6.406;2023-06-04T13:25:26;26.20;99.90
29575;DHT22;16507;51.046;6.406;2023-06-04T13:27:54;25.90;99.90
29575;DHT22;16507;51.046;6.406;2023-06-04T13:30:20;26.00;99.90
29575;DHT22;16507;51.046;6.406;2023-06-04T13:32:46;25.40;99.90
29575;DHT22;16507;51.046;6.406;2023-06-04T13:35:12;25.80;99.90
29575;DHT22;16507;51.046;6.406;2023-06-04T13:37:37;25.60;99.90
29575;DHT22;16507;51.046;6.406;2023-06-04T13:40:03;25.70;99.90
29575;DHT22;16507;51.046;6.406;2023-06-04T13:42:29;25.30;99.90
29575;DHT22;16507;51.046;6.406;2023-06-04T13:44:55;25.00;99.90
29575;DHT22;16507;51.046;6.406;2023-06-04T13:47:20;24.30;99.90
29575;DHT22;16507;51.046;6.406;2023-06-04T13:49:47;24.20;99.90
29575;DHT22;16507;51.046;6.406;2023-06-04T13:52:13;24.60;99.90
29575;DHT22;16507;51.046;6.406;2023-06-04T13:54:38;24.50;99.90
29575;DHT22;16507;51.046;6.406;2023-06-04T13:57:04;25.00;99.90
29575;DHT22;16507;51.046;6.406;2023-06-04T13:59:32;24.70;99.90
29575;DHT22;16507;51.046;6.406;2023-06-04T14:01:59;24.60;99.90
29575;DHT22;16507;51.046;6.406;2023-06-04T14:04:24;24.30;99.90
29575;DHT22;16507;51.046;6.406;2023-06-04T14:06:50;24.50;99.90
29575;DHT22;16507;51.046;6.406;2023-06-04T14:09:16;24.40;99.90
29575;DHT22;16507;51.046;6.406;2023-06-04T14:11:42;24.90;99.90
29575;DHT22;16507;51.046;6.406;2023-06-04T14:14:07;24.50;99.90
29575;DHT22;16507;51.046;6.406;2023-06-04T14:16:33;24.50;99.90
29575;DHT22;16507;51.046;6.406;2023-06-04T14:19:00;25.10;99.90
29575;DHT22;16507;51.046;6.406;2023-06-04T14:21:26;25.20;99.90
29575;DHT22;16507;51.046;6.406;2023-06-04T14:23:53;24.40;99.90
29575;DHT22;16507;51.046;6.406;2023-06-04T14:26:18;24.60;99.90
29575;DHT22;16507;51.046;6.406;2023-06-04T14:28:44;24.90;99.90
29575;DHT22;16507;51.046;6.406;2023-06-04T14:31:10;25.20;99.90
29575;DHT22;16507;51.046;6.406;2023-06-04T14:33:36;25.50;99.90
29575;DHT22;16507;51.046;6.406;2023-06-04T14:36:03;25.50;99.90
29575;DHT22;16507;51.046;6.406;2023-06-04T14:38:29;25.10;99.90
29575;DHT22;16507;51.046;6.406;2023-06-04T14:40:55;24.70;99.90
29575;DHT22;16507;51.046;6.406;2023-06-04T14:43:22;24.90;99.90
29575;DHT22;16507;51.046;6.406;2023-06-04T14:45:47;25.20;99.90
29575;DHT22;16507;51.046;6.406;2023-06-04T14:48:13;24.80;99.90
29575;DHT22;16507;51.046;6.406;2023-06-04T14:50:39;25.20;99.90
29575;DHT22;16507;51.046;6.406;2023-06-04T14:53:05;25.40;99.90
29575;DHT22;16507;51.046;6.406;2023-06-04T14:55:33;25.60;99.90
29575;DHT22;16507;51.046;6.406;2023-06-04T14:57:59;25.30;99.90
29575;DHT22;16507;51.046;6.406;2023-06-04T15:00:25;25.00;99.90
29575;DHT22;16507;51.046;6.406;2023-06-04T15:02:51;24.50;99.90
29575;DHT22;16507;51.046;6.406;2023-06-04T15:05:16;24.30;99.90
29575;DHT22;16507;51.046;6.406;2023-06-04T15:07:42;24.60;99.90
29575;DHT22;16507;51.046;6.406;2023-06-04T15:10:08;25.30;99.90
29575;DHT22;16507;51.046;6.406;2023-06-04T15:12:34;24.80;99.90
29575;DHT22;16507;51.046;6.406;2023-06-04T15:15:05;24.40;99.90
29575;DHT22;16507;51.046;6.406;2023-06-04T15:17:31;24.40;99.90
29575;DHT22;16507;51.046;6.406;2023-06-04T15:19:56;24.90;99.90
29575;DHT22;16507;51.046;6.406;2023-06-04T15:22:24;24.70;99.90
29575;DHT22;16507;51.046;6.406;2023-06-04T15:24:50;24.20;99.90
29575;DHT22;16507;51.046;6.406;2023-06-04T15:27:16;24.80;99.90
29575;DHT22;16507;51.046;6.406;2023-06-04T15:29:43;25.00;99.90
29575;DHT22;16507;51.046;6.406;2023-06-04T15:32:09;25.30;99.90
29575;DHT22;16507;51.046;6.406;2023-06-04T15:34:34;25.70;99.90
29575;DHT22;16507;51.046;6.406;2023-06-04T15:37:00;25.30;99.90
29575;DHT22;16507;51.046;6.406;2023-06-04T15:39:26;24.80;99.90
29575;DHT22;16507;51.046;6.406;2023-06-04T15:41:51;24.20;99.90
29575;DHT22;16507;51.046;6.406;2023-06-04T15:44:17;24.50;99.90
29575;DHT22;16507;51.046;6.406;2023-06-04T15:46:42;24.40;99.90
29575;DHT22;16507;51.046;6.406;2023-06-04T15:49:09;24.80;99.90